sensor_id;sensor_type;location;lat;lon;timestamp;temperature;humidity
15959;DHT22;8078;47.822;9.402;2022-09-12T00:00:28;11.90;99.90
15959;DHT22;8078;47.822;9.402;2022-09-12T00:02:57;11.90;99.90
15959;DHT22;8078;47.822;9.402;2022-09-12T00:05:23;11.90;99.90
15959;DHT22;8078;47.822;9.402;2022-09-12T00:07:49;11.90;99.90
15959;DHT22;8078;47.822;9.402;2022-09-12T00:10:15;11.90;99.90
15959;DHT22;8078;47.822;9.402;2022-09-12T00:12:40;11.90;99.90
15959;DHT22;8078;47.822;9.402;2022-09-12T00:15:07;11.90;99.90
15959;DHT22;8078;47.822;9.402;2022-09-12T00:17:34;11.90;99.90
15959;DHT22;8078;47.822;9.402;2022-09-12T00:20:00;11.90;99.90
15959;DHT22;8078;47.822;9.402;2022-09-12T00:22:25;11.90;99.90
15959;DHT22;8078;47.822;9.402;2022-09-12T00:24:51;11.80;99.90
15959;DHT22;8078;47.822;9.402;2022-09-12T00:27:16;11.80;99.90
15959;DHT22;8078;47.822;9.402;2022-09-12T00:29:42;11.80;99.90
15959;DHT22;8078;47.822;9.402;2022-09-12T00:32:08;11.70;99.90
15959;DHT22;8078;47.822;9.402;2022-09-12T00:34:35;11.60;99.90
15959;DHT22;8078;47.822;9.402;2022-09-12T00:37:01;11.60;99.90
15959;DHT22;8078;47.822;9.402;2022-09-12T00:39:27;11.60;99.90
15959;DHT22;8078;47.822;9.402;2022-09-12T00:41:52;11.50;99.90
15959;DHT22;8078;47.822;9.402;2022-09-12T00:46:54;11.50;99.90
15959;DHT22;8078;47.822;9.402;2022-09-12T00:49:32;11.40;99.90
15959;DHT22;8078;47.822;9.402;2022-09-12T00:52:03;11.40;99.90
15959;DHT22;8078;47.822;9.402;2022-09-12T00:54:35;11.30;99.90
15959;DHT22;8078;47.822;9.402;2022-09-12T00:57:05;11.20;99.90
15959;DHT22;8078;47.822;9.402;2022-09-12T00:59:39;11.10;99.90
15959;DHT22;8078;47.822;9.402;2022-09-12T01:02:06;11.00;99.90
15959;DHT22;8078;47.822;9.402;2022-09-12T01:04:33;11.00;99.90
15959;DHT22;8078;47.822;9.402;2022-09-12T01:07:00;11.00;99.90
15959;DHT22;8078;47.822;9.402;2022-09-12T01:09:28;10.90;99.90
15959;DHT22;8078;47.822;9.402;2022-09-12T01:11:54;10.80;99.90
15959;DHT22;8078;47.822;9.402;2022-09-12T01:14:20;10.80;99.90
15959;DHT22;8078;47.822;9.402;2022-09-12T01:16:47;10.90;99.90
15959;DHT22;8078;47.822;9.402;2022-09-12T01:35:42;10.80;99.90
15959;DHT22;8078;47.822;9.402;2022-09-12T01:38:22;10.80;99.90
15959;DHT22;8078;47.822;9.402;2022-09-12T01:43:51;10.70;99.90
15959;DHT22;8078;47.822;9.402;2022-09-12T01:46:27;10.60;99.90
15959;DHT22;8078;47.822;9.402;2022-09-12T01:49:08;10.60;99.90
15959;DHT22;8078;47.822;9.402;2022-09-12T01:51:59;10.60;99.90
15959;DHT22;8078;47.822;9.402;2022-09-12T01:54:36;10.60;99.90
15959;DHT22;8078;47.822;9.402;2022-09-12T01:57:09;10.50;99.90
15959;DHT22;8078;47.822;9.402;2022-09-12T01:59:42;10.50;99.90
15959;DHT22;8078;47.822;9.402;2022-09-12T02:02:15;10.60;99.90
15959;DHT22;8078;47.822;9.402;2022-09-12T02:07:45;10.60;99.90
15959;DHT22;8078;47.822;9.402;2022-09-12T02:10:21;10.60;99.90
15959;DHT22;8078;47.822;9.402;2022-09-12T02:15:33;10.60;99.90
15959;DHT22;8078;47.822;9.402;2022-09-12T02:18:00;10.50;99.90
15959;DHT22;8078;47.822;9.402;2022-09-12T02:20:31;10.70;99.90
15959;DHT22;8078;47.822;9.402;2022-09-12T02:22:59;10.70;99.90
15959;DHT22;8078;47.822;9.402;2022-09-12T02:25:28;10.70;99.90
15959;DHT22;8078;47.822;9.402;2022-09-12T02:28:02;10.70;99.90
15959;DHT22;8078;47.822;9.402;2022-09-12T02:30:38;10.80;99.90
15959;DHT22;8078;47.822;9.402;2022-09-12T02:33:05;10.70;99.90
15959;DHT22;8078;47.822;9.402;2022-09-12T02:36:00;10.70;99.90
15959;DHT22;8078;47.822;9.402;2022-09-12T02:38:36;10.60;99.90
15959;DHT22;8078;47.822;9.402;2022-09-12T02:41:06;10.70;99.90
15959;DHT22;8078;47.822;9.402;2022-09-12T02:43:32;10.70;99.90
15959;DHT22;8078;47.822;9.402;2022-09-12T02:45:58;10.70;99.90
15959;DHT22;8078;47.822;9.402;2022-09-12T02:48:27;10.80;99.90
15959;DHT22;8078;47.822;9.402;2022-09-12T02:50:54;10.80;99.90
15959;DHT22;8078;47.822;9.402;2022-09-12T02:53:21;10.80;99.90
15959;DHT22;8078;47.822;9.402;2022-09-12T02:55:46;10.80;99.90
15959;DHT22;8078;47.822;9.402;2022-09-12T02:58:16;10.70;99.90
15959;DHT22;8078;47.822;9.402;2022-09-12T03:01:16;10.60;99.90
15959;DHT22;8078;47.822;9.402;2022-09-12T03:03:59;10.60;99.90
15959;DHT22;8078;47.822;9.402;2022-09-12T03:07:04;10.60;99.90
15959;DHT22;8078;47.822;9.402;2022-09-12T03:09:35;10.60;99.90
15959;DHT22;8078;47.822;9.402;2022-09-12T03:12:19;10.60;99.90
15959;DHT22;8078;47.822;9.402;2022-09-12T03:15:08;10.50;99.90
15959;DHT22;8078;47.822;9.402;2022-09-12T03:17:55;10.50;99.90
15959;DHT22;8078;47.822;9.402;2022-09-12T03:20:44;10.50;99.90
15959;DHT22;8078;47.822;9.402;2022-09-12T03:23:23;10.50;99.90
15959;DHT22;8078;47.822;9.402;2022-09-12T03:29:06;10.60;99.90
15959;DHT22;8078;47.822;9.402;2022-09-12T03:31:32;10.70;99.90
15959;DHT22;8078;47.822;9.402;2022-09-12T03:34:01;10.80;99.90
15959;DHT22;8078;47.822;9.402;2022-09-12T03:36:28;10.80;99.90
15959;DHT22;8078;47.822;9.402;2022-09-12T03:38:54;10.70;99.90
15959;DHT22;8078;47.822;9.402;2022-09-12T03:41:20;10.70;99.90
15959;DHT22;8078;47.822;9.402;2022-09-12T03:43:46;10.70;99.90
15959;DHT22;8078;47.822;9.402;2022-09-12T03:46:12;10.70;99.90
15959;DHT22;8078;47.822;9.402;2022-09-12T03:48:39;10.70;99.90
15959;DHT22;8078;47.822;9.402;2022-09-12T03:51:07;10.80;99.90
15959;DHT22;8078;47.822;9.402;2022-09-12T03:53:33;10.80;99.90
15959;DHT22;8078;47.822;9.402;2022-09-12T03:55:59;10.80;99.90
15959;DHT22;8078;47.822;9.402;2022-09-12T03:58:29;10.80;99.90
15959;DHT22;8078;47.822;9.402;2022-09-12T04:00:55;10.80;99.90
15959;DHT22;8078;47.822;9.402;2022-09-12T04:03:21;10.80;99.90
15959;DHT22;8078;47.822;9.402;2022-09-12T04:05:47;10.80;99.90
15959;DHT22;8078;47.822;9.402;2022-09-12T04:08:13;10.80;99.90
15959;DHT22;8078;47.822;9.402;2022-09-12T04:10:39;10.90;99.90
15959;DHT22;8078;47.822;9.402;2022-09-12T04:13:04;10.90;99.90
15959;DHT22;8078;47.822;9.402;2022-09-12T04:15:30;10.90;99.90
15959;DHT22;8078;47.822;9.402;2022-09-12T04:17:55;11.00;99.90
15959;DHT22;8078;47.822;9.402;2022-09-12T04:20:21;11.00;99.90
15959;DHT22;8078;47.822;9.402;2022-09-12T04:22:47;11.00;99.90
15959;DHT22;8078;47.822;9.402;2022-09-12T04:25:12;10.90;99.90
15959;DHT22;8078;47.822;9.402;2022-09-12T04:27:38;11.00;99.90
15959;DHT22;8078;47.822;9.402;2022-09-12T04:30:05;11.00;99.90
15959;DHT22;8078;47.822;9.402;2022-09-12T04:32:31;10.90;99.90
15959;DHT22;8078;47.822;9.402;2022-09-12T04:34:56;11.00;99.90
15959;DHT22;8078;47.822;9.402;2022-09-12T04:37:22;10.90;99.90
15959;DHT22;8078;47.822;9.402;2022-09-12T04:39:48;10.90;99.90
15959;DHT22;8078;47.822;9.402;2022-09-12T04:42:15;10.80;99.90
15959;DHT22;8078;47.822;9.402;2022-09-12T04:44:41;10.80;99.90
15959;DHT22;8078;47.822;9.402;2022-09-12T04:47:06;10.80;99.90
15959;DHT22;8078;47.822;9.402;2022-09-12T04:49:32;10.80;99.90
15959;DHT22;8078;47.822;9.402;2022-09-12T04:51:58;10.80;99.90
15959;DHT22;8078;47.822;9.402;2022-09-12T04:54:24;10.70;99.90
15959;DHT22;8078;47.822;9.402;2022-09-12T04:56:50;10.80;99.90
15959;DHT22;8078;47.822;9.402;2022-09-12T04:59:18;10.80;99.90
15959;DHT22;8078;47.822;9.402;2022-09-12T05:01:44;10.80;99.90
15959;DHT22;8078;47.822;9.402;2022-09-12T05:04:11;10.80;99.90
15959;DHT22;8078;47.822;9.402;2022-09-12T05:06:38;10.80;99.90
15959;DHT22;8078;47.822;9.402;2022-09-12T05:09:06;10.80;99.90
15959;DHT22;8078;47.822;9.402;2022-09-12T05:11:34;10.90;99.90
15959;DHT22;8078;47.822;9.402;2022-09-12T05:14:00;11.00;99.90
15959;DHT22;8078;47.822;9.402;2022-09-12T05:16:27;11.00;99.90
15959;DHT22;8078;47.822;9.402;2022-09-12T05:18:54;11.10;99.90
15959;DHT22;8078;47.822;9.402;2022-09-12T05:21:21;11.10;99.90
15959;DHT22;8078;47.822;9.402;2022-09-12T05:23:54;11.20;99.90
15959;DHT22;8078;47.822;9.402;2022-09-12T05:26:20;11.30;99.90
15959;DHT22;8078;47.822;9.402;2022-09-12T05:28:48;11.30;99.90
15959;DHT22;8078;47.822;9.402;2022-09-12T05:31:19;11.40;99.90
15959;DHT22;8078;47.822;9.402;2022-09-12T05:33:46;11.50;99.90
15959;DHT22;8078;47.822;9.402;2022-09-12T05:36:24;11.60;99.90
15959;DHT22;8078;47.822;9.402;2022-09-12T05:38:50;11.60;99.90
15959;DHT22;8078;47.822;9.402;2022-09-12T05:41:18;11.80;99.90
15959;DHT22;8078;47.822;9.402;2022-09-12T05:43:44;11.80;99.90
15959;DHT22;8078;47.822;9.402;2022-09-12T05:46:13;11.80;99.90
15959;DHT22;8078;47.822;9.402;2022-09-12T05:48:41;12.00;99.90
15959;DHT22;8078;47.822;9.402;2022-09-12T05:51:15;12.00;99.90
15959;DHT22;8078;47.822;9.402;2022-09-12T05:53:46;12.00;99.90
15959;DHT22;8078;47.822;9.402;2022-09-12T05:56:17;12.10;99.90
15959;DHT22;8078;47.822;9.402;2022-09-12T05:58:45;12.20;99.90
15959;DHT22;8078;47.822;9.402;2022-09-12T06:01:16;12.20;99.90
15959;DHT22;8078;47.822;9.402;2022-09-12T06:03:43;12.30;99.90
15959;DHT22;8078;47.822;9.402;2022-09-12T06:06:10;12.40;99.90
15959;DHT22;8078;47.822;9.402;2022-09-12T06:08:39;12.40;99.90
15959;DHT22;8078;47.822;9.402;2022-09-12T06:11:06;12.60;99.90
15959;DHT22;8078;47.822;9.402;2022-09-12T06:13:33;12.60;99.90
15959;DHT22;8078;47.822;9.402;2022-09-12T06:16:06;12.60;99.90
15959;DHT22;8078;47.822;9.402;2022-09-12T06:18:35;12.70;99.90
15959;DHT22;8078;47.822;9.402;2022-09-12T06:21:09;12.70;99.90
15959;DHT22;8078;47.822;9.402;2022-09-12T06:23:35;12.80;99.90
15959;DHT22;8078;47.822;9.402;2022-09-12T06:26:02;12.90;99.90
15959;DHT22;8078;47.822;9.402;2022-09-12T06:28:29;13.00;99.90
15959;DHT22;8078;47.822;9.402;2022-09-12T06:31:04;13.00;99.90
15959;DHT22;8078;47.822;9.402;2022-09-12T06:33:32;13.10;99.90
15959;DHT22;8078;47.822;9.402;2022-09-12T06:36:06;13.20;99.90
15959;DHT22;8078;47.822;9.402;2022-09-12T06:38:32;13.30;99.90
15959;DHT22;8078;47.822;9.402;2022-09-12T06:40:58;13.30;99.90
15959;DHT22;8078;47.822;9.402;2022-09-12T06:43:25;13.50;99.90
15959;DHT22;8078;47.822;9.402;2022-09-12T06:45:51;13.60;99.90
15959;DHT22;8078;47.822;9.402;2022-09-12T06:48:16;13.70;99.90
15959;DHT22;8078;47.822;9.402;2022-09-12T06:50:42;13.80;99.90
15959;DHT22;8078;47.822;9.402;2022-09-12T06:53:07;13.80;99.90
15959;DHT22;8078;47.822;9.402;2022-09-12T06:55:34;13.90;99.90
15959;DHT22;8078;47.822;9.402;2022-09-12T06:57:59;14.10;99.90
15959;DHT22;8078;47.822;9.402;2022-09-12T07:00:25;14.20;99.90
15959;DHT22;8078;47.822;9.402;2022-09-12T07:02:54;14.30;99.90
15959;DHT22;8078;47.822;9.402;2022-09-12T07:05:21;14.50;99.90
15959;DHT22;8078;47.822;9.402;2022-09-12T07:07:47;14.70;99.90
15959;DHT22;8078;47.822;9.402;2022-09-12T07:10:12;14.80;99.90
15959;DHT22;8078;47.822;9.402;2022-09-12T07:12:38;15.00;99.90
15959;DHT22;8078;47.822;9.402;2022-09-12T07:15:04;15.10;99.90
15959;DHT22;8078;47.822;9.402;2022-09-12T07:17:30;15.20;99.90
15959;DHT22;8078;47.822;9.402;2022-09-12T07:19:55;15.40;99.90
15959;DHT22;8078;47.822;9.402;2022-09-12T07:22:21;15.40;99.90
15959;DHT22;8078;47.822;9.402;2022-09-12T07:24:46;15.40;99.90
15959;DHT22;8078;47.822;9.402;2022-09-12T07:27:12;15.50;99.90
15959;DHT22;8078;47.822;9.402;2022-09-12T07:29:37;15.60;99.90
15959;DHT22;8078;47.822;9.402;2022-09-12T07:32:04;15.70;99.90
15959;DHT22;8078;47.822;9.402;2022-09-12T07:34:30;15.80;99.90
15959;DHT22;8078;47.822;9.402;2022-09-12T07:36:56;15.70;99.90
15959;DHT22;8078;47.822;9.402;2022-09-12T07:39:22;15.90;99.90
15959;DHT22;8078;47.822;9.402;2022-09-12T07:41:47;16.10;99.90
15959;DHT22;8078;47.822;9.402;2022-09-12T07:44:13;16.10;99.90
15959;DHT22;8078;47.822;9.402;2022-09-12T07:46:38;16.20;99.90
15959;DHT22;8078;47.822;9.402;2022-09-12T07:49:04;16.10;99.90
15959;DHT22;8078;47.822;9.402;2022-09-12T07:51:30;16.30;99.90
15959;DHT22;8078;47.822;9.402;2022-09-12T07:53:56;16.30;99.90
15959;DHT22;8078;47.822;9.402;2022-09-12T07:56:23;16.30;99.90
15959;DHT22;8078;47.822;9.402;2022-09-12T07:58:49;16.40;99.90
15959;DHT22;8078;47.822;9.402;2022-09-12T08:01:17;16.60;99.90
15959;DHT22;8078;47.822;9.402;2022-09-12T08:03:45;16.60;99.90
15959;DHT22;8078;47.822;9.402;2022-09-12T08:06:13;16.60;99.90
15959;DHT22;8078;47.822;9.402;2022-09-12T08:08:39;16.70;99.90
15959;DHT22;8078;47.822;9.402;2022-09-12T08:11:10;16.90;99.90
15959;DHT22;8078;47.822;9.402;2022-09-12T08:13:37;16.80;99.90
15959;DHT22;8078;47.822;9.402;2022-09-12T08:16:06;17.10;99.90
15959;DHT22;8078;47.822;9.402;2022-09-12T08:18:33;17.40;99.90
15959;DHT22;8078;47.822;9.402;2022-09-12T08:21:11;17.50;99.90
15959;DHT22;8078;47.822;9.402;2022-09-12T08:23:37;17.40;99.90
15959;DHT22;8078;47.822;9.402;2022-09-12T08:26:04;17.40;99.90
15959;DHT22;8078;47.822;9.402;2022-09-12T08:28:30;17.40;99.90
15959;DHT22;8078;47.822;9.402;2022-09-12T08:31:26;17.50;99.90
15959;DHT22;8078;47.822;9.402;2022-09-12T08:33:54;17.70;99.90
15959;DHT22;8078;47.822;9.402;2022-09-12T08:36:23;17.60;99.90
15959;DHT22;8078;47.822;9.402;2022-09-12T08:38:52;17.50;99.90
15959;DHT22;8078;47.822;9.402;2022-09-12T08:49:52;18.00;99.90
15959;DHT22;8078;47.822;9.402;2022-09-12T08:52:29;18.30;99.90
15959;DHT22;8078;47.822;9.402;2022-09-12T08:54:57;18.50;99.90
15959;DHT22;8078;47.822;9.402;2022-09-12T08:57:25;18.40;99.90
15959;DHT22;8078;47.822;9.402;2022-09-12T08:59:51;18.50;99.90
15959;DHT22;8078;47.822;9.402;2022-09-12T09:10:35;18.80;99.90
15959;DHT22;8078;47.822;9.402;2022-09-12T09:18:37;18.90;99.90
15959;DHT22;8078;47.822;9.402;2022-09-12T09:21:14;18.90;99.90
15959;DHT22;8078;47.822;9.402;2022-09-12T09:23:47;19.20;99.90
15959;DHT22;8078;47.822;9.402;2022-09-12T09:26:19;19.30;99.90
15959;DHT22;8078;47.822;9.402;2022-09-12T09:28:55;19.30;99.90
15959;DHT22;8078;47.822;9.402;2022-09-12T09:31:23;19.10;99.90
15959;DHT22;8078;47.822;9.402;2022-09-12T09:33:52;19.20;99.90
15959;DHT22;8078;47.822;9.402;2022-09-12T09:39:39;19.60;99.90
15959;DHT22;8078;47.822;9.402;2022-09-12T09:44:52;19.60;99.90
15959;DHT22;8078;47.822;9.402;2022-09-12T09:47:18;19.70;99.90
15959;DHT22;8078;47.822;9.402;2022-09-12T09:49:44;19.70;99.90
15959;DHT22;8078;47.822;9.402;2022-09-12T09:52:14;19.90;99.90
15959;DHT22;8078;47.822;9.402;2022-09-12T09:54:48;20.10;99.90
15959;DHT22;8078;47.822;9.402;2022-09-12T09:57:38;20.40;99.90
15959;DHT22;8078;47.822;9.402;2022-09-12T10:00:31;20.50;99.90
15959;DHT22;8078;47.822;9.402;2022-09-12T10:03:03;20.60;99.90
15959;DHT22;8078;47.822;9.402;2022-09-12T10:05:30;20.70;99.90
15959;DHT22;8078;47.822;9.402;2022-09-12T10:07:57;20.80;99.90
15959;DHT22;8078;47.822;9.402;2022-09-12T10:10:23;20.90;99.90
15959;DHT22;8078;47.822;9.402;2022-09-12T10:12:50;21.00;99.90
15959;DHT22;8078;47.822;9.402;2022-09-12T10:15:25;21.10;99.90
15959;DHT22;8078;47.822;9.402;2022-09-12T10:17:51;21.30;99.90
15959;DHT22;8078;47.822;9.402;2022-09-12T10:20:42;21.20;99.90
15959;DHT22;8078;47.822;9.402;2022-09-12T10:25:46;21.40;99.90
15959;DHT22;8078;47.822;9.402;2022-09-12T10:28:24;21.60;99.90
15959;DHT22;8078;47.822;9.402;2022-09-12T10:30:54;21.30;99.90
15959;DHT22;8078;47.822;9.402;2022-09-12T10:33:22;21.40;99.90
15959;DHT22;8078;47.822;9.402;2022-09-12T10:35:51;21.40;99.90
15959;DHT22;8078;47.822;9.402;2022-09-12T10:38:30;21.60;99.90
15959;DHT22;8078;47.822;9.402;2022-09-12T10:41:04;21.80;99.90
15959;DHT22;8078;47.822;9.402;2022-09-12T10:48:50;22.30;99.90
15959;DHT22;8078;47.822;9.402;2022-09-12T10:51:34;22.50;99.90
15959;DHT22;8078;47.822;9.402;2022-09-12T10:54:02;22.70;99.90
15959;DHT22;8078;47.822;9.402;2022-09-12T10:56:35;22.80;99.90
15959;DHT22;8078;47.822;9.402;2022-09-12T11:08:28;22.60;99.90
15959;DHT22;8078;47.822;9.402;2022-09-12T11:11:35;23.00;99.90
15959;DHT22;8078;47.822;9.402;2022-09-12T11:24:29;23.40;99.90
15959;DHT22;8078;47.822;9.402;2022-09-12T11:29:49;23.90;99.90
15959;DHT22;8078;47.822;9.402;2022-09-12T11:35:11;23.60;99.90
15959;DHT22;8078;47.822;9.402;2022-09-12T11:42:58;23.80;99.90
15959;DHT22;8078;47.822;9.402;2022-09-12T11:45:35;23.70;99.90
15959;DHT22;8078;47.822;9.402;2022-09-12T11:48:07;23.90;99.90
15959;DHT22;8078;47.822;9.402;2022-09-12T11:50:36;23.90;99.90
15959;DHT22;8078;47.822;9.402;2022-09-12T11:53:25;23.90;99.90
15959;DHT22;8078;47.822;9.402;2022-09-12T11:56:03;24.20;99.90
15959;DHT22;8078;47.822;9.402;2022-09-12T11:58:30;24.50;99.90
15959;DHT22;8078;47.822;9.402;2022-09-12T12:01:18;24.60;99.90
15959;DHT22;8078;47.822;9.402;2022-09-12T12:03:46;24.60;99.90
15959;DHT22;8078;47.822;9.402;2022-09-12T12:06:30;24.60;99.90
15959;DHT22;8078;47.822;9.402;2022-09-12T12:08:57;24.50;99.90
15959;DHT22;8078;47.822;9.402;2022-09-12T12:11:29;24.80;99.90
15959;DHT22;8078;47.822;9.402;2022-09-12T12:13:59;25.10;99.90
15959;DHT22;8078;47.822;9.402;2022-09-12T12:16:27;23.80;99.90
15959;DHT22;8078;47.822;9.402;2022-09-12T12:18:59;23.90;99.90
15959;DHT22;8078;47.822;9.402;2022-09-12T12:29:10;24.80;99.90
15959;DHT22;8078;47.822;9.402;2022-09-12T12:34:40;23.70;99.90
15959;DHT22;8078;47.822;9.402;2022-09-12T12:54:32;22.30;99.90
15959;DHT22;8078;47.822;9.402;2022-09-12T12:57:17;23.30;99.90
15959;DHT22;8078;47.822;9.402;2022-09-12T13:06:05;21.50;99.90
15959;DHT22;8078;47.822;9.402;2022-09-12T13:08:35;22.40;99.90
15959;DHT22;8078;47.822;9.402;2022-09-12T13:16:33;22.30;99.90
15959;DHT22;8078;47.822;9.402;2022-09-12T13:19:13;21.20;99.90
15959;DHT22;8078;47.822;9.402;2022-09-12T13:21:56;21.30;99.90
15959;DHT22;8078;47.822;9.402;2022-09-12T13:24:24;21.50;99.90
15959;DHT22;8078;47.822;9.402;2022-09-12T13:26:50;21.40;99.90
15959;DHT22;8078;47.822;9.402;2022-09-12T13:29:17;21.10;99.90
15959;DHT22;8078;47.822;9.402;2022-09-12T13:31:47;20.90;99.90
15959;DHT22;8078;47.822;9.402;2022-09-12T13:34:19;20.90;99.90
15959;DHT22;8078;47.822;9.402;2022-09-12T13:37:24;21.50;99.90
15959;DHT22;8078;47.822;9.402;2022-09-12T13:42:40;23.30;99.90
15959;DHT22;8078;47.822;9.402;2022-09-12T13:45:23;22.40;99.90
15959;DHT22;8078;47.822;9.402;2022-09-12T13:47:59;22.10;99.90
15959;DHT22;8078;47.822;9.402;2022-09-12T13:50:40;21.80;99.90
15959;DHT22;8078;47.822;9.402;2022-09-12T13:53:13;22.40;99.90
15959;DHT22;8078;47.822;9.402;2022-09-12T13:55:42;23.20;99.90
15959;DHT22;8078;47.822;9.402;2022-09-12T13:58:29;22.30;99.90
15959;DHT22;8078;47.822;9.402;2022-09-12T14:01:14;23.00;99.90
15959;DHT22;8078;47.822;9.402;2022-09-12T14:06:50;23.00;99.90
15959;DHT22;8078;47.822;9.402;2022-09-12T14:11:47;24.60;99.90
15959;DHT22;8078;47.822;9.402;2022-09-12T14:14:36;24.80;99.90
15959;DHT22;8078;47.822;9.402;2022-09-12T14:19:48;23.70;99.90
15959;DHT22;8078;47.822;9.402;2022-09-12T14:22:14;24.10;99.90
15959;DHT22;8078;47.822;9.402;2022-09-12T14:26:10;24.50;99.90
15959;DHT22;8078;47.822;9.402;2022-09-12T14:28:39;24.60;99.90
15959;DHT22;8078;47.822;9.402;2022-09-12T14:33:49;24.40;99.90
15959;DHT22;8078;47.822;9.402;2022-09-12T14:40:22;23.60;99.90
15959;DHT22;8078;47.822;9.402;2022-09-12T14:42:49;24.30;99.90
15959;DHT22;8078;47.822;9.402;2022-09-12T14:45:28;24.30;99.90
15959;DHT22;8078;47.822;9.402;2022-09-12T14:47:56;24.10;99.90
15959;DHT22;8078;47.822;9.402;2022-09-12T14:50:25;23.20;99.90
15959;DHT22;8078;47.822;9.402;2022-09-12T14:55:46;23.80;99.90
15959;DHT22;8078;47.822;9.402;2022-09-12T14:58:21;23.30;99.90
15959;DHT22;8078;47.822;9.402;2022-09-12T15:01:20;23.90;99.90
15959;DHT22;8078;47.822;9.402;2022-09-12T15:06:30;23.70;99.90
15959;DHT22;8078;47.822;9.402;2022-09-12T15:08:59;23.70;99.90
15959;DHT22;8078;47.822;9.402;2022-09-12T15:11:25;23.50;99.90
15959;DHT22;8078;47.822;9.402;2022-09-12T15:13:51;22.90;99.90
15959;DHT22;8078;47.822;9.402;2022-09-12T15:16:17;23.90;99.90
15959;DHT22;8078;47.822;9.402;2022-09-12T15:18:42;24.30;99.90
15959;DHT22;8078;47.822;9.402;2022-09-12T15:21:12;24.40;99.90
15959;DHT22;8078;47.822;9.402;2022-09-12T15:23:46;24.40;99.90
15959;DHT22;8078;47.822;9.402;2022-09-12T15:26:18;24.10;99.90
15959;DHT22;8078;47.822;9.402;2022-09-12T15:28:44;24.80;99.90
15959;DHT22;8078;47.822;9.402;2022-09-12T15:31:27;25.60;99.90
15959;DHT22;8078;47.822;9.402;2022-09-12T15:33:54;25.40;99.90
15959;DHT22;8078;47.822;9.402;2022-09-12T15:36:22;24.90;99.90
15959;DHT22;8078;47.822;9.402;2022-09-12T15:38:48;25.20;99.90
15959;DHT22;8078;47.822;9.402;2022-09-12T15:41:20;25.20;99.90
15959;DHT22;8078;47.822;9.402;2022-09-12T15:43:46;25.30;99.90
15959;DHT22;8078;47.822;9.402;2022-09-12T15:46:14;25.60;99.90
15959;DHT22;8078;47.822;9.402;2022-09-12T15:48:40;24.40;99.90
15959;DHT22;8078;47.822;9.402;2022-09-12T15:51:13;24.70;99.90
15959;DHT22;8078;47.822;9.402;2022-09-12T15:53:39;25.50;99.90
15959;DHT22;8078;47.822;9.402;2022-09-12T15:56:05;25.20;99.90
15959;DHT22;8078;47.822;9.402;2022-09-12T15:58:30;25.10;99.90
15959;DHT22;8078;47.822;9.402;2022-09-12T16:00:56;25.60;99.90
15959;DHT22;8078;47.822;9.402;2022-09-12T16:03:26;26.00;99.90
15959;DHT22;8078;47.822;9.402;2022-09-12T16:05:59;25.60;99.90
15959;DHT22;8078;47.822;9.402;2022-09-12T16:08:26;24.90;99.90
15959;DHT22;8078;47.822;9.402;2022-09-12T16:10:54;24.80;99.90
15959;DHT22;8078;47.822;9.402;2022-09-12T16:13:24;24.70;99.90
15959;DHT22;8078;47.822;9.402;2022-09-12T16:15:50;24.80;99.90
15959;DHT22;8078;47.822;9.402;2022-09-12T16:18:16;24.10;99.90
15959;DHT22;8078;47.822;9.402;2022-09-12T16:20:42;24.10;99.90
15959;DHT22;8078;47.822;9.402;2022-09-12T16:23:11;23.50;99.90
15959;DHT22;8078;47.822;9.402;2022-09-12T16:25:37;23.60;99.90
15959;DHT22;8078;47.822;9.402;2022-09-12T16:28:03;22.90;99.90
15959;DHT22;8078;47.822;9.402;2022-09-12T16:30:31;22.70;99.90
15959;DHT22;8078;47.822;9.402;2022-09-12T16:32:56;22.30;99.90
15959;DHT22;8078;47.822;9.402;2022-09-12T16:37:48;21.90;99.90
15959;DHT22;8078;47.822;9.402;2022-09-12T16:40:13;21.80;99.90
15959;DHT22;8078;47.822;9.402;2022-09-12T16:42:42;21.40;99.90
15959;DHT22;8078;47.822;9.402;2022-09-12T16:45:08;21.00;99.90
15959;DHT22;8078;47.822;9.402;2022-09-12T16:47:33;20.60;99.90
15959;DHT22;8078;47.822;9.402;2022-09-12T16:49:59;20.20;99.90
15959;DHT22;8078;47.822;9.402;2022-09-12T16:52:25;19.80;99.90
15959;DHT22;8078;47.822;9.402;2022-09-12T16:54:50;19.40;99.90
15959;DHT22;8078;47.822;9.402;2022-09-12T16:57:16;19.20;99.90
15959;DHT22;8078;47.822;9.402;2022-09-12T16:59:41;18.90;99.90
15959;DHT22;8078;47.822;9.402;2022-09-12T17:02:11;18.70;99.90
15959;DHT22;8078;47.822;9.402;2022-09-12T17:04:36;18.50;99.90
15959;DHT22;8078;47.822;9.402;2022-09-12T17:07:02;18.30;99.90
15959;DHT22;8078;47.822;9.402;2022-09-12T17:09:27;18.20;99.90
15959;DHT22;8078;47.822;9.402;2022-09-12T17:11:54;18.00;99.90
15959;DHT22;8078;47.822;9.402;2022-09-12T17:14:20;17.90;99.90
15959;DHT22;8078;47.822;9.402;2022-09-12T17:16:46;17.80;99.90
15959;DHT22;8078;47.822;9.402;2022-09-12T17:19:23;17.60;99.90
15959;DHT22;8078;47.822;9.402;2022-09-12T17:21:51;17.50;99.90
15959;DHT22;8078;47.822;9.402;2022-09-12T17:24:17;17.30;99.90
15959;DHT22;8078;47.822;9.402;2022-09-12T17:26:43;17.30;99.90
15959;DHT22;8078;47.822;9.402;2022-09-12T17:29:10;17.30;99.90
15959;DHT22;8078;47.822;9.402;2022-09-12T17:31:37;17.30;99.90
15959;DHT22;8078;47.822;9.402;2022-09-12T17:34:02;17.20;99.90
15959;DHT22;8078;47.822;9.402;2022-09-12T17:36:28;17.10;99.90
15959;DHT22;8078;47.822;9.402;2022-09-12T17:38:56;17.00;99.90
15959;DHT22;8078;47.822;9.402;2022-09-12T17:41:25;16.90;99.90
15959;DHT22;8078;47.822;9.402;2022-09-12T17:43:54;16.80;99.90
15959;DHT22;8078;47.822;9.402;2022-09-12T17:46:25;16.60;99.90
15959;DHT22;8078;47.822;9.402;2022-09-12T17:48:55;16.60;99.90
15959;DHT22;8078;47.822;9.402;2022-09-12T17:51:23;16.50;99.90
15959;DHT22;8078;47.822;9.402;2022-09-12T17:53:57;16.40;99.90
15959;DHT22;8078;47.822;9.402;2022-09-12T17:56:26;16.40;99.90
15959;DHT22;8078;47.822;9.402;2022-09-12T17:58:53;16.40;99.90
15959;DHT22;8078;47.822;9.402;2022-09-12T18:01:19;16.30;99.90
15959;DHT22;8078;47.822;9.402;2022-09-12T18:04:03;16.30;99.90
15959;DHT22;8078;47.822;9.402;2022-09-12T18:06:30;16.20;99.90
15959;DHT22;8078;47.822;9.402;2022-09-12T18:09:04;16.10;99.90
15959;DHT22;8078;47.822;9.402;2022-09-12T18:11:30;16.00;99.90
15959;DHT22;8078;47.822;9.402;2022-09-12T18:13:59;16.00;99.90
15959;DHT22;8078;47.822;9.402;2022-09-12T18:16:25;15.90;99.90
15959;DHT22;8078;47.822;9.402;2022-09-12T18:18:53;15.90;99.90
15959;DHT22;8078;47.822;9.402;2022-09-12T18:21:18;15.90;99.90
15959;DHT22;8078;47.822;9.402;2022-09-12T18:23:44;15.80;99.90
15959;DHT22;8078;47.822;9.402;2022-09-12T18:26:10;15.80;99.90
15959;DHT22;8078;47.822;9.402;2022-09-12T18:28:39;15.80;99.90
15959;DHT22;8078;47.822;9.402;2022-09-12T18:31:11;15.90;99.90
15959;DHT22;8078;47.822;9.402;2022-09-12T18:33:37;15.80;99.90
15959;DHT22;8078;47.822;9.402;2022-09-12T18:36:07;15.70;99.90
15959;DHT22;8078;47.822;9.402;2022-09-12T18:38:34;15.60;99.90
15959;DHT22;8078;47.822;9.402;2022-09-12T18:41:01;15.70;99.90
15959;DHT22;8078;47.822;9.402;2022-09-12T18:43:27;15.80;99.90
15959;DHT22;8078;47.822;9.402;2022-09-12T18:45:52;15.80;99.90